createdAt,value
2019-01-15T00:01:18.944Z,2.37
2019-01-15T00:02:18.871Z,2.29
2019-01-15T00:04:11.646Z,2.38
2019-01-15T00:05:11.556Z,2.38
2019-01-15T00:07:04.338Z,2.40
2019-01-15T00:08:04.270Z,2.44
2019-01-15T00:09:57.049Z,2.45
2019-01-15T00:10:56.953Z,2.41
2019-01-15T00:12:49.749Z,2.48
2019-01-15T00:13:49.632Z,2.47
2019-01-15T00:15:42.385Z,2.43
2019-01-15T00:16:42.302Z,2.41
2019-01-15T00:18:35.087Z,2.44
2019-01-15T00:19:34.989Z,2.58
2019-01-15T00:21:27.793Z,2.55
2019-01-15T00:22:27.725Z,2.56
2019-01-15T00:24:20.539Z,2.51
2019-01-15T00:25:20.454Z,2.48
2019-01-15T00:27:13.224Z,2.56
2019-01-15T00:28:13.143Z,2.53
2019-01-15T00:30:05.934Z,2.61
2019-01-15T00:31:05.851Z,2.59
2019-01-15T00:32:58.655Z,2.50
2019-01-15T00:33:58.564Z,2.59
2019-01-15T00:35:51.325Z,2.65
2019-01-15T00:36:51.239Z,2.56
2019-01-15T00:38:44.139Z,2.58
2019-01-15T00:39:44.041Z,2.51
2019-01-15T00:41:36.840Z,2.53
2019-01-15T00:42:36.758Z,2.56
2019-01-15T00:44:29.565Z,2.56
2019-01-15T00:45:29.455Z,2.53
2019-01-15T00:47:22.213Z,2.56
2019-01-15T00:48:22.207Z,2.55
2019-01-15T00:50:15.063Z,2.51
2019-01-15T00:51:15.097Z,2.55
2019-01-15T00:53:08.139Z,2.51
2019-01-15T00:54:07.724Z,2.58
2019-01-15T00:56:00.473Z,2.44
2019-01-15T00:57:00.411Z,2.51
2019-01-15T00:58:53.250Z,2.47
2019-01-15T00:59:53.145Z,2.45
2019-01-15T01:01:45.970Z,2.48
2019-01-15T01:02:45.890Z,2.59
2019-01-15T01:04:38.678Z,2.58
2019-01-15T01:05:38.567Z,2.56
2019-01-15T01:07:31.335Z,2.53
2019-01-15T01:08:31.259Z,2.61
2019-01-15T01:10:24.041Z,2.51
2019-01-15T01:11:23.947Z,2.53
2019-01-15T01:13:16.718Z,2.55
2019-01-15T01:14:16.638Z,2.47
2019-01-15T01:16:09.434Z,2.59
2019-01-15T01:17:09.342Z,2.56
2019-01-15T01:19:02.158Z,2.59
2019-01-15T01:20:02.030Z,2.56
2019-01-15T01:21:54.814Z,2.61
2019-01-15T01:22:54.742Z,2.53
2019-01-15T01:24:47.619Z,2.58
2019-01-15T01:25:47.411Z,2.51
2019-01-15T01:27:40.171Z,2.58
2019-01-15T01:28:40.073Z,2.53
2019-01-15T01:30:32.835Z,2.61
2019-01-15T01:31:32.767Z,2.56
2019-01-15T01:33:25.505Z,2.68
2019-01-15T01:34:25.438Z,2.58
2019-01-15T01:36:18.214Z,2.76
2019-01-15T01:37:18.115Z,2.77
2019-01-15T01:39:10.917Z,2.76
2019-01-15T01:40:10.827Z,2.76
2019-01-15T01:42:04.259Z,2.89
2019-01-15T01:43:03.562Z,2.74
2019-01-15T01:44:56.362Z,2.79
2019-01-15T01:45:56.275Z,2.69
2019-01-15T01:47:49.101Z,2.66
2019-01-15T01:48:48.966Z,2.66
2019-01-15T01:50:41.752Z,2.59
2019-01-15T01:51:41.647Z,2.58
2019-01-15T01:53:34.531Z,2.53
2019-01-15T01:54:34.391Z,2.51
2019-01-15T01:58:53.474Z,2.51
2019-01-15T01:59:53.379Z,2.55
2019-01-15T02:01:46.223Z,2.62
2019-01-15T02:02:46.110Z,2.58
2019-01-15T02:04:38.878Z,2.63
2019-01-15T02:05:38.808Z,2.62
2019-01-15T02:07:31.540Z,2.59
2019-01-15T02:08:31.441Z,2.56
2019-01-15T02:10:24.192Z,2.66
2019-01-15T02:11:24.104Z,2.66
2019-01-15T02:13:16.868Z,2.68
2019-01-15T02:14:16.802Z,2.63
2019-01-15T02:16:09.717Z,2.61
2019-01-15T02:17:09.659Z,2.66
2019-01-15T02:19:02.389Z,2.77
2019-01-15T02:20:02.294Z,2.76
2019-01-15T02:21:55.067Z,2.76
2019-01-15T02:22:54.974Z,2.79
2019-01-15T02:24:47.763Z,2.83
2019-01-15T02:25:47.668Z,2.76
2019-01-15T02:27:40.466Z,2.77
2019-01-15T02:28:40.376Z,2.74
2019-01-15T02:30:33.127Z,2.79
2019-01-15T02:31:33.053Z,2.83
2019-01-15T02:33:25.914Z,2.84
2019-01-15T02:34:25.749Z,2.86
2019-01-15T02:36:18.508Z,2.95
2019-01-15T02:37:18.453Z,2.98
2019-01-15T02:39:11.185Z,2.95
2019-01-15T02:40:11.105Z,3.04
2019-01-15T02:42:03.876Z,2.99
2019-01-15T02:43:03.798Z,2.97
2019-01-15T02:44:56.609Z,2.95
2019-01-15T02:45:56.492Z,2.87
2019-01-15T02:47:49.290Z,2.90
2019-01-15T02:48:49.200Z,2.86
2019-01-15T02:50:41.945Z,2.87
2019-01-15T02:51:41.868Z,2.83
2019-01-15T02:53:34.650Z,2.84
2019-01-15T02:54:34.585Z,2.65
2019-01-15T02:56:27.430Z,2.65
2019-01-15T02:57:27.360Z,2.68
2019-01-15T02:59:20.056Z,2.71
2019-01-15T03:00:19.978Z,2.65
2019-01-15T03:02:12.724Z,2.61
2019-01-15T03:03:12.680Z,2.53
2019-01-15T03:05:05.443Z,2.61
2019-01-15T03:06:05.344Z,2.62
2019-01-15T03:07:58.143Z,2.55
2019-01-15T03:08:58.082Z,2.58
2019-01-15T03:10:50.859Z,2.62
2019-01-15T03:11:50.988Z,2.55
2019-01-15T03:13:43.599Z,2.48
2019-01-15T03:14:43.486Z,2.59
2019-01-15T03:16:36.337Z,2.53
2019-01-15T03:17:36.257Z,2.56
2019-01-15T03:19:29.552Z,2.58
2019-01-15T03:20:29.545Z,2.51
2019-01-15T03:22:22.257Z,2.53
2019-01-15T03:23:22.192Z,2.58
2019-01-15T03:25:15.030Z,2.51
2019-01-15T03:26:14.963Z,2.56
2019-01-15T03:28:07.612Z,2.56
2019-01-15T03:29:07.532Z,2.59
2019-01-15T03:31:00.292Z,2.51
2019-01-15T03:32:00.209Z,2.37
2019-01-15T03:33:53.035Z,2.47
2019-01-15T03:34:52.933Z,2.56
2019-01-15T03:36:45.747Z,2.51
2019-01-15T03:37:45.632Z,2.51
2019-01-15T03:39:38.506Z,2.61
2019-01-15T03:40:38.321Z,2.56
2019-01-15T03:42:31.716Z,2.61
2019-01-15T03:43:31.122Z,2.71
2019-01-15T03:45:23.887Z,2.80
2019-01-15T03:46:23.818Z,2.76
2019-01-15T03:48:16.554Z,2.80
2019-01-15T03:49:16.632Z,2.84
2019-01-15T03:51:09.387Z,2.81
2019-01-15T03:52:09.159Z,2.84
2019-01-15T03:54:01.938Z,2.89
2019-01-15T03:55:01.869Z,2.90
2019-01-15T03:56:54.686Z,2.87
2019-01-15T03:57:54.529Z,2.89
2019-01-15T03:59:47.345Z,2.98
2019-01-15T04:00:47.284Z,2.89
2019-01-15T04:02:40.024Z,2.87
2019-01-15T04:03:39.980Z,2.89
2019-01-15T04:05:32.755Z,2.84
2019-01-15T04:06:32.665Z,2.84
2019-01-15T04:08:25.425Z,2.89
2019-01-15T04:09:25.403Z,2.89
2019-01-15T04:11:18.133Z,2.95
2019-01-15T04:12:18.037Z,2.83
2019-01-15T04:14:10.827Z,2.84
2019-01-15T04:15:10.731Z,2.81
2019-01-15T04:17:03.501Z,2.86
2019-01-15T04:18:03.428Z,2.84
2019-01-15T04:19:56.183Z,2.80
2019-01-15T04:20:56.123Z,2.83
2019-01-15T04:22:48.998Z,2.65
2019-01-15T04:23:48.848Z,2.83
2019-01-15T04:25:41.631Z,2.84
2019-01-15T04:26:41.532Z,2.83
2019-01-15T04:28:34.461Z,2.84
2019-01-15T04:29:34.321Z,2.81
2019-01-15T04:31:27.106Z,2.87
2019-01-15T04:32:27.018Z,2.84
2019-01-15T04:34:19.815Z,3.01
2019-01-15T04:35:19.712Z,2.99
2019-01-15T04:37:12.616Z,2.97
2019-01-15T04:38:12.404Z,3.10
2019-01-15T04:40:05.221Z,3.08
2019-01-15T04:41:05.092Z,3.15
2019-01-15T04:42:57.843Z,3.19
2019-01-15T04:43:57.752Z,3.22
2019-01-15T04:45:50.545Z,3.17
2019-01-15T04:46:50.430Z,3.15
2019-01-15T04:48:43.190Z,3.08
2019-01-15T04:49:43.098Z,3.04
2019-01-15T04:51:35.932Z,3.12
2019-01-15T04:52:35.802Z,3.05
2019-01-15T04:54:28.647Z,3.01
2019-01-15T04:55:28.511Z,3.12
2019-01-15T04:57:21.264Z,3.20
2019-01-15T04:58:21.171Z,3.19
2019-01-15T05:00:14.104Z,3.26
2019-01-15T05:01:13.998Z,3.23
2019-01-15T05:03:06.873Z,3.19
2019-01-15T05:04:06.680Z,3.23
2019-01-15T05:06:00.027Z,3.20
2019-01-15T05:06:59.572Z,3.26
2019-01-15T05:08:52.422Z,3.37
2019-01-15T05:09:52.306Z,3.34
2019-01-15T05:11:45.215Z,3.34
2019-01-15T05:12:44.986Z,3.44
2019-01-15T05:14:37.749Z,3.44
2019-01-15T05:15:37.678Z,3.37
2019-01-15T05:17:30.532Z,3.41
2019-01-15T05:18:30.397Z,3.49
2019-01-15T05:20:23.192Z,3.62
2019-01-15T05:21:23.267Z,3.56
2019-01-15T05:23:15.839Z,3.53
2019-01-15T05:24:15.748Z,3.50
2019-01-15T05:26:08.512Z,3.60
2019-01-15T05:27:08.419Z,3.60
2019-01-15T05:29:01.183Z,3.64
2019-01-15T05:30:01.133Z,3.68
2019-01-15T05:31:53.975Z,3.67
2019-01-15T05:32:53.934Z,3.64
2019-01-15T05:34:46.648Z,3.63
2019-01-15T05:35:46.599Z,3.63
2019-01-15T05:37:39.374Z,3.64
2019-01-15T05:38:39.335Z,3.57
2019-01-15T05:40:32.134Z,3.67
2019-01-15T05:41:31.964Z,3.70
2019-01-15T05:43:24.857Z,3.75
2019-01-15T05:44:24.773Z,3.81
2019-01-15T05:46:18.186Z,3.81
2019-01-15T05:47:17.485Z,3.77
2019-01-15T05:49:10.448Z,3.82
2019-01-15T05:50:10.216Z,3.81
2019-01-15T05:52:03.079Z,3.84
2019-01-15T05:53:02.931Z,3.82
2019-01-15T05:54:55.958Z,3.82
2019-01-15T05:55:55.751Z,3.78
2019-01-15T05:57:48.516Z,3.81
2019-01-15T05:58:48.437Z,3.80
2019-01-15T06:00:41.246Z,3.86
2019-01-15T06:01:41.134Z,3.80
2019-01-15T06:03:33.919Z,3.81
2019-01-15T06:04:33.847Z,3.84
2019-01-15T06:06:27.492Z,3.88
2019-01-15T06:07:33.510Z,3.78
2019-01-15T06:09:20.271Z,3.78
2019-01-15T06:10:20.158Z,3.75
2019-01-15T06:12:12.931Z,3.74
2019-01-15T06:13:12.900Z,3.81
2019-01-15T06:15:05.622Z,3.81
2019-01-15T06:16:05.560Z,3.89
2019-01-15T06:17:58.362Z,3.81
2019-01-15T06:18:58.350Z,3.82
2019-01-15T06:20:51.257Z,3.99
2019-01-15T06:21:51.109Z,3.95
2019-01-15T06:23:43.897Z,3.84
2019-01-15T06:24:43.831Z,4.00
2019-01-15T06:26:36.604Z,3.99
2019-01-15T06:27:36.522Z,3.98
2019-01-15T06:29:29.330Z,3.99
2019-01-15T06:30:29.196Z,3.92
2019-01-15T06:32:21.940Z,3.90
2019-01-15T06:33:21.868Z,3.98
2019-01-15T06:35:14.715Z,4.06
2019-01-15T06:36:14.592Z,4.04
2019-01-15T06:38:07.600Z,4.10
2019-01-15T06:39:07.321Z,4.02
2019-01-15T06:41:00.071Z,4.04
2019-01-15T06:41:59.999Z,4.07
2019-01-15T06:43:52.776Z,4.13
2019-01-15T06:44:52.756Z,4.07
2019-01-15T06:46:45.424Z,4.04
2019-01-15T06:47:45.384Z,4.08
2019-01-15T06:49:38.441Z,4.16
2019-01-15T06:50:38.489Z,4.18
2019-01-15T06:52:31.119Z,4.18
2019-01-15T06:53:31.140Z,4.17
2019-01-15T06:55:24.126Z,4.11
2019-01-15T06:56:23.677Z,4.10
2019-01-15T06:58:16.430Z,4.18
2019-01-15T06:59:16.551Z,4.08
2019-01-15T07:01:09.122Z,4.13
2019-01-15T07:02:09.034Z,4.14
2019-01-15T07:04:01.938Z,4.08
2019-01-15T07:05:01.885Z,4.10
2019-01-15T07:06:54.709Z,4.16
2019-01-15T07:07:54.654Z,4.14
2019-01-15T07:09:47.619Z,4.08
2019-01-15T07:10:47.593Z,4.06
2019-01-15T07:12:40.324Z,4.07
2019-01-15T07:13:40.268Z,4.13
2019-01-15T07:15:33.005Z,4.04
2019-01-15T07:16:32.924Z,4.02
2019-01-15T07:18:25.795Z,4.11
2019-01-15T07:19:25.715Z,4.07
2019-01-15T07:21:18.479Z,4.07
2019-01-15T07:22:18.422Z,4.10
2019-01-15T07:24:11.157Z,4.11
2019-01-15T07:25:11.103Z,4.10
2019-01-15T07:27:04.029Z,4.20
2019-01-15T07:28:03.761Z,4.21
2019-01-15T07:29:56.614Z,4.16
2019-01-15T07:30:56.472Z,4.18
2019-01-15T07:32:49.250Z,4.17
2019-01-15T07:33:49.177Z,4.25
2019-01-15T07:35:41.966Z,4.21
2019-01-15T07:36:41.867Z,4.21
2019-01-15T07:38:34.650Z,4.21
2019-01-15T07:39:34.526Z,4.25
2019-01-15T07:41:27.347Z,4.29
2019-01-15T07:42:27.207Z,4.24
2019-01-15T07:44:19.990Z,4.18
2019-01-15T07:45:19.902Z,4.16
2019-01-15T07:47:12.672Z,4.25
2019-01-15T07:48:12.612Z,4.20
2019-01-15T07:50:05.364Z,4.14
2019-01-15T07:51:05.288Z,4.20
2019-01-15T07:52:58.038Z,4.21
2019-01-15T07:53:57.963Z,4.26
2019-01-15T07:55:50.731Z,4.28
2019-01-15T07:56:50.647Z,4.28
2019-01-15T07:58:43.422Z,4.29
2019-01-15T07:59:43.350Z,4.34
2019-01-15T08:01:36.270Z,4.35
2019-01-15T08:02:36.039Z,4.34
2019-01-15T08:04:28.965Z,4.32
2019-01-15T08:05:28.874Z,4.24
2019-01-15T08:07:21.669Z,4.31
2019-01-15T08:08:21.613Z,4.32
2019-01-15T08:10:14.385Z,4.35
2019-01-15T08:11:14.305Z,4.38
2019-01-15T08:13:07.099Z,4.46
2019-01-15T08:14:11.880Z,4.43
2019-01-15T08:15:59.755Z,4.32
2019-01-15T08:16:59.674Z,4.35
2019-01-15T08:18:52.470Z,4.31
2019-01-15T08:19:52.368Z,4.34
2019-01-15T08:21:45.147Z,4.39
2019-01-15T08:22:45.058Z,4.29
2019-01-15T08:24:37.824Z,4.36
2019-01-15T08:25:37.734Z,4.31
2019-01-15T08:27:30.490Z,4.36
2019-01-15T08:28:30.415Z,4.43
2019-01-15T08:30:23.457Z,4.31
2019-01-15T08:31:23.520Z,4.34
2019-01-15T08:33:16.121Z,4.46
2019-01-15T08:34:16.039Z,4.34
2019-01-15T08:36:08.822Z,4.44
2019-01-15T08:37:08.729Z,4.32
2019-01-15T08:39:01.511Z,4.43
2019-01-15T08:40:01.452Z,4.35
2019-01-15T08:41:54.230Z,4.43
2019-01-15T08:42:54.139Z,4.39
2019-01-15T08:44:46.933Z,4.43
2019-01-15T08:45:46.838Z,4.43
2019-01-15T08:47:39.618Z,4.43
2019-01-15T08:48:39.629Z,4.49
2019-01-15T08:50:32.333Z,4.49
2019-01-15T08:51:32.243Z,4.44
2019-01-15T08:53:24.998Z,4.47
2019-01-15T08:54:26.330Z,4.49
2019-01-15T08:56:17.760Z,4.44
2019-01-15T08:57:17.612Z,4.42
2019-01-15T08:59:10.382Z,4.34
2019-01-15T09:00:10.347Z,4.35
2019-01-15T09:02:03.077Z,4.35
2019-01-15T09:03:02.990Z,4.38
2019-01-15T09:04:55.827Z,4.32
2019-01-15T09:05:55.703Z,4.39
2019-01-15T09:07:48.502Z,4.42
2019-01-15T09:08:48.515Z,4.44
2019-01-15T09:10:41.198Z,4.34
2019-01-15T09:11:41.114Z,4.35
2019-01-15T09:13:33.894Z,4.43
2019-01-15T09:14:33.810Z,4.29
2019-01-15T09:16:26.625Z,4.34
2019-01-15T09:17:26.481Z,4.28
2019-01-15T09:19:19.267Z,4.24
2019-01-15T09:20:19.170Z,4.17
2019-01-15T09:22:11.929Z,4.21
2019-01-15T09:23:11.924Z,4.17
2019-01-15T09:25:04.628Z,4.18
2019-01-15T09:26:04.561Z,4.21
2019-01-15T09:27:57.499Z,4.26
2019-01-15T09:28:57.320Z,4.21
2019-01-15T09:30:50.114Z,4.25
2019-01-15T09:31:50.017Z,4.21
2019-01-15T09:33:42.840Z,4.24
2019-01-15T09:34:42.718Z,4.35
2019-01-15T09:36:35.492Z,4.38
2019-01-15T09:37:35.447Z,4.43
2019-01-15T09:39:28.240Z,4.61
2019-01-15T09:40:28.139Z,4.56
2019-01-15T09:42:20.889Z,4.69
2019-01-15T09:43:20.866Z,4.69
2019-01-15T09:45:13.557Z,4.71
2019-01-15T09:46:13.469Z,4.67
2019-01-15T09:48:06.403Z,4.71
2019-01-15T09:49:06.346Z,4.69
2019-01-15T09:50:59.120Z,4.57
2019-01-15T09:51:59.003Z,4.54
2019-01-15T09:53:51.798Z,4.53
2019-01-15T09:54:51.692Z,4.61
2019-01-15T09:56:44.472Z,4.62
2019-01-15T09:57:44.388Z,4.50
2019-01-15T09:59:37.169Z,4.47
2019-01-15T10:00:37.066Z,4.56
2019-01-15T10:02:29.852Z,4.57
2019-01-15T10:03:29.758Z,4.64
2019-01-15T10:05:22.556Z,4.67
2019-01-15T10:06:22.495Z,4.79
2019-01-15T10:08:15.285Z,4.80
2019-01-15T10:09:15.129Z,4.68
2019-01-15T10:11:08.033Z,4.79
2019-01-15T10:12:07.952Z,4.72
2019-01-15T10:14:00.727Z,4.71
2019-01-15T10:15:00.623Z,4.69
2019-01-15T10:16:53.402Z,4.84
2019-01-15T10:17:53.311Z,4.79
2019-01-15T10:19:46.137Z,4.80
2019-01-15T10:20:46.002Z,4.75
2019-01-15T10:22:38.781Z,4.79
2019-01-15T10:23:38.798Z,4.79
2019-01-15T10:25:31.439Z,4.83
2019-01-15T10:26:31.377Z,4.84
2019-01-15T10:28:24.137Z,4.99
2019-01-15T10:29:24.061Z,4.88
2019-01-15T10:31:16.840Z,5.08
2019-01-15T10:32:16.779Z,5.08
2019-01-15T10:34:09.511Z,4.97
2019-01-15T10:35:09.435Z,4.91
2019-01-15T10:37:02.212Z,5.01
2019-01-15T10:38:02.133Z,4.93
2019-01-15T10:39:54.965Z,5.04
2019-01-15T10:40:54.915Z,5.09
2019-01-15T10:42:47.684Z,5.14
2019-01-15T10:43:47.657Z,5.23
2019-01-15T10:45:40.539Z,5.20
2019-01-15T10:46:40.464Z,5.20
2019-01-15T10:48:33.240Z,5.24
2019-01-15T10:49:33.154Z,5.22
2019-01-15T10:51:25.927Z,5.23
2019-01-15T10:52:26.832Z,5.08
2019-01-15T10:54:18.616Z,5.32
2019-01-15T10:55:18.555Z,5.27
2019-01-15T10:57:11.303Z,5.41
2019-01-15T10:58:17.547Z,5.41
2019-01-15T11:00:03.982Z,5.40
2019-01-15T11:01:03.909Z,5.37
2019-01-15T11:02:56.730Z,5.38
2019-01-15T11:03:56.645Z,5.24
2019-01-15T11:05:49.443Z,5.37
2019-01-15T11:06:49.327Z,5.42
2019-01-15T11:08:42.144Z,5.47
2019-01-15T11:09:42.044Z,5.45
2019-01-15T11:11:35.061Z,5.44
2019-01-15T11:12:34.726Z,5.44
2019-01-15T11:14:27.495Z,5.44
2019-01-15T11:15:27.405Z,5.35
2019-01-15T11:17:20.201Z,5.37
2019-01-15T11:18:20.089Z,5.45
2019-01-15T11:20:12.862Z,5.56
2019-01-15T11:21:12.783Z,5.55
2019-01-15T11:23:05.573Z,5.63
2019-01-15T11:24:05.486Z,5.67
2019-01-15T11:25:58.237Z,5.67
2019-01-15T11:26:58.211Z,5.63
2019-01-15T11:28:50.929Z,5.56
2019-01-15T11:29:50.849Z,5.60
2019-01-15T11:31:44.177Z,5.58
2019-01-15T11:32:44.025Z,5.55
2019-01-15T11:34:36.808Z,5.66
2019-01-15T11:35:36.727Z,5.60
2019-01-15T11:37:29.533Z,5.63
2019-01-15T11:38:29.433Z,5.65
2019-01-15T11:40:22.175Z,5.63
2019-01-15T11:41:22.094Z,5.66
2019-01-15T11:43:14.885Z,5.66
2019-01-15T11:44:14.795Z,5.66
2019-01-15T11:46:07.570Z,5.73
2019-01-15T11:47:07.494Z,5.70
2019-01-15T11:49:00.286Z,5.65
2019-01-15T11:50:00.208Z,5.65
2019-01-15T11:51:53.012Z,5.65
2019-01-15T11:52:52.905Z,5.73
2019-01-15T11:54:45.658Z,5.67
2019-01-15T11:55:45.583Z,5.67
2019-01-15T11:57:38.380Z,5.60
2019-01-15T11:58:38.289Z,5.63
2019-01-15T12:00:31.060Z,5.56
2019-01-15T12:01:30.992Z,5.58
2019-01-15T12:03:23.855Z,5.49
2019-01-15T12:04:23.711Z,5.45
2019-01-15T12:06:16.454Z,5.40
2019-01-15T12:07:16.384Z,5.40
2019-01-15T12:09:09.167Z,5.49
2019-01-15T12:10:09.083Z,5.40
2019-01-15T12:12:01.985Z,5.44
2019-01-15T12:13:01.779Z,5.38
2019-01-15T12:14:54.551Z,5.44
2019-01-15T12:15:54.476Z,5.40
2019-01-15T12:17:47.242Z,5.47
2019-01-15T12:18:47.165Z,5.51
2019-01-15T12:20:39.939Z,5.51
2019-01-15T12:21:39.877Z,5.52
2019-01-15T12:23:32.674Z,5.55
2019-01-15T12:24:32.588Z,5.52
2019-01-15T12:26:25.361Z,5.59
2019-01-15T12:27:25.327Z,5.65
2019-01-15T12:29:18.052Z,5.56
2019-01-15T12:30:18.025Z,5.55
2019-01-15T12:32:10.735Z,5.51
2019-01-15T12:33:10.668Z,5.44
2019-01-15T12:35:03.424Z,5.51
2019-01-15T12:36:03.387Z,5.51
2019-01-15T12:37:56.172Z,5.51
2019-01-15T12:38:56.041Z,5.51
2019-01-15T12:40:48.812Z,5.37
2019-01-15T12:41:48.785Z,5.37
2019-01-15T12:43:41.532Z,5.44
2019-01-15T12:44:41.436Z,5.44
2019-01-15T12:46:34.209Z,5.41
2019-01-15T12:47:34.110Z,5.42
2019-01-15T12:49:26.897Z,5.40
2019-01-15T12:50:26.806Z,5.37
2019-01-15T12:52:19.553Z,5.33
2019-01-15T12:53:19.487Z,5.37
2019-01-15T12:55:12.271Z,5.37
2019-01-15T12:56:12.156Z,5.40
2019-01-15T12:58:04.924Z,5.30
2019-01-15T12:59:04.865Z,5.38
2019-01-15T13:00:57.635Z,5.38
2019-01-15T13:01:57.541Z,5.41
2019-01-15T13:03:50.314Z,5.29
2019-01-15T13:04:50.232Z,5.37
2019-01-15T13:06:43.012Z,5.41
2019-01-15T13:07:42.928Z,5.33
2019-01-15T13:09:35.701Z,5.45
2019-01-15T13:10:36.721Z,5.42
2019-01-15T13:12:28.347Z,5.44
2019-01-15T13:13:28.359Z,5.48
2019-01-15T13:15:29.340Z,5.33
2019-01-15T13:16:20.968Z,5.44
2019-01-15T13:18:13.715Z,5.40
2019-01-15T13:19:13.645Z,5.45
2019-01-15T13:21:06.415Z,5.35
2019-01-15T13:22:06.326Z,5.33
2019-01-15T13:23:59.073Z,5.40
2019-01-15T13:24:58.998Z,5.41
2019-01-15T13:26:51.775Z,5.33
2019-01-15T13:27:51.706Z,5.45
2019-01-15T13:29:44.486Z,5.29
2019-01-15T13:30:44.401Z,5.37
2019-01-15T13:32:37.399Z,5.38
2019-01-15T13:33:37.336Z,5.37
2019-01-15T13:35:30.085Z,5.33
2019-01-15T13:36:30.000Z,5.37
2019-01-15T13:38:22.784Z,5.38
2019-01-15T13:39:22.694Z,5.37
2019-01-15T13:41:15.560Z,5.35
2019-01-15T13:42:15.401Z,5.47
2019-01-15T13:44:08.173Z,5.49
2019-01-15T13:45:08.089Z,5.44
2019-01-15T13:47:00.859Z,5.48
2019-01-15T13:48:00.776Z,5.47
2019-01-15T13:49:53.555Z,5.42
2019-01-15T13:50:53.472Z,5.42
2019-01-15T13:52:46.301Z,5.42
2019-01-15T13:53:46.272Z,5.42
2019-01-15T13:55:38.997Z,5.41
2019-01-15T13:56:38.914Z,5.40
2019-01-15T13:58:31.675Z,5.44
2019-01-15T13:59:31.588Z,5.41
2019-01-15T14:01:24.414Z,5.41
2019-01-15T14:02:24.279Z,5.44
2019-01-15T14:04:17.043Z,5.35
2019-01-15T14:05:17.015Z,5.41
2019-01-15T14:07:09.746Z,5.38
2019-01-15T14:08:09.663Z,5.51
2019-01-15T14:10:02.442Z,5.62
2019-01-15T14:11:02.354Z,5.56
2019-01-15T14:12:55.120Z,5.60
2019-01-15T14:13:56.131Z,5.56
2019-01-15T14:15:49.081Z,5.52
2019-01-15T14:16:47.724Z,5.58
2019-01-15T14:18:40.502Z,5.59
2019-01-15T14:19:40.451Z,5.51
2019-01-15T14:21:33.202Z,5.56
2019-01-15T14:22:33.175Z,5.56
2019-01-15T14:24:25.896Z,5.51
2019-01-15T14:25:25.811Z,5.56
2019-01-15T14:27:18.603Z,5.55
2019-01-15T14:28:18.519Z,5.49
2019-01-15T14:30:11.299Z,5.52
2019-01-15T14:31:11.245Z,5.59
2019-01-15T14:33:04.046Z,5.56
2019-01-15T14:34:04.000Z,5.55
2019-01-15T14:35:56.725Z,5.59
2019-01-15T14:36:56.677Z,5.56
2019-01-15T14:38:49.430Z,5.60
2019-01-15T14:39:49.348Z,5.63
2019-01-15T14:41:42.194Z,5.63
2019-01-15T14:42:42.050Z,5.63
2019-01-15T14:44:34.846Z,5.63
2019-01-15T14:45:34.794Z,5.67
2019-01-15T14:47:27.657Z,5.65
2019-01-15T14:48:27.556Z,5.73
2019-01-15T14:50:20.314Z,5.66
2019-01-15T14:51:20.288Z,5.69
2019-01-15T14:53:13.034Z,5.67
2019-01-15T14:54:12.943Z,5.73
2019-01-15T14:56:05.768Z,5.69
2019-01-15T14:57:05.630Z,5.74
2019-01-15T14:58:58.389Z,5.74
2019-01-15T14:59:58.314Z,5.66
2019-01-15T15:01:51.087Z,5.70
2019-01-15T15:02:51.019Z,5.70
2019-01-15T15:04:43.790Z,5.75
2019-01-15T15:05:43.708Z,5.78
2019-01-15T15:07:36.522Z,5.77
2019-01-15T15:08:36.420Z,5.78
2019-01-15T15:10:29.286Z,5.75
2019-01-15T15:11:29.212Z,5.78
2019-01-15T15:13:22.000Z,5.73
2019-01-15T15:14:21.912Z,5.78
2019-01-15T15:16:14.853Z,5.87
2019-01-15T15:17:14.784Z,5.90
2019-01-15T15:19:07.554Z,5.96
2019-01-15T15:20:07.493Z,5.85
2019-01-15T15:22:00.325Z,5.88
2019-01-15T15:23:00.254Z,5.92
2019-01-15T15:24:53.010Z,5.90
2019-01-15T15:25:52.925Z,5.87
2019-01-15T15:27:45.695Z,5.93
2019-01-15T15:28:45.638Z,5.96
2019-01-15T15:30:38.404Z,5.98
2019-01-15T15:31:38.319Z,5.99
2019-01-15T15:33:31.156Z,5.96
2019-01-15T15:34:31.066Z,6.10
2019-01-15T15:36:23.845Z,6.06
2019-01-15T15:37:23.789Z,5.92
2019-01-15T15:39:16.576Z,6.02
2019-01-15T15:40:16.505Z,6.05
2019-01-15T15:42:09.316Z,6.10
2019-01-15T15:43:09.222Z,6.08
2019-01-15T15:45:01.976Z,6.13
2019-01-15T15:46:01.898Z,6.03
2019-01-15T15:47:54.686Z,6.08
2019-01-15T15:48:54.595Z,6.03
2019-01-15T15:50:47.342Z,6.13
2019-01-15T15:51:47.309Z,6.16
2019-01-15T15:53:40.041Z,6.14
2019-01-15T15:54:39.963Z,6.16
2019-01-15T15:56:32.718Z,6.17
2019-01-15T15:57:32.650Z,6.11
2019-01-15T15:59:25.431Z,6.21
2019-01-15T16:00:25.364Z,6.24
2019-01-15T16:02:18.167Z,6.21
2019-01-15T16:03:18.045Z,6.24
2019-01-15T16:05:10.802Z,6.16
2019-01-15T16:06:10.705Z,6.20
2019-01-15T16:08:03.521Z,6.27
2019-01-15T16:09:03.448Z,6.20
2019-01-15T16:10:56.247Z,6.25
2019-01-15T16:11:56.166Z,6.32
2019-01-15T16:13:48.940Z,6.39
2019-01-15T16:14:48.866Z,6.39
2019-01-15T16:16:41.625Z,6.27
2019-01-15T16:17:41.552Z,6.33
2019-01-15T16:19:34.335Z,6.33
2019-01-15T16:20:34.242Z,6.30
2019-01-15T16:22:27.073Z,6.40
2019-01-15T16:23:27.031Z,6.33
2019-01-15T16:25:19.838Z,6.35
2019-01-15T16:26:19.751Z,6.38
2019-01-15T16:28:12.657Z,6.38
2019-01-15T16:29:13.130Z,6.42
2019-01-15T16:31:05.328Z,6.45
2019-01-15T16:32:05.257Z,6.36
2019-01-15T16:33:58.007Z,6.43
2019-01-15T16:34:57.906Z,6.50
2019-01-15T16:36:50.765Z,6.53
2019-01-15T16:37:50.618Z,6.46
2019-01-15T16:39:43.413Z,6.51
2019-01-15T16:40:43.317Z,6.50
2019-01-15T16:42:36.070Z,6.58
2019-01-15T16:43:36.028Z,6.63
2019-01-15T16:45:28.773Z,6.51
2019-01-15T16:46:28.692Z,6.60
2019-01-15T16:48:21.475Z,6.58
2019-01-15T16:49:21.397Z,6.55
2019-01-15T16:51:14.190Z,6.61
2019-01-15T16:52:14.079Z,6.57
2019-01-15T16:54:06.914Z,6.60
2019-01-15T16:55:06.799Z,6.50
2019-01-15T16:56:59.551Z,6.60
2019-01-15T16:57:59.486Z,6.63
2019-01-15T16:59:52.284Z,6.69
2019-01-15T17:00:52.207Z,6.61
2019-01-15T17:02:45.029Z,6.60
2019-01-15T17:03:44.888Z,6.64
2019-01-15T17:05:37.696Z,6.78
2019-01-15T17:06:37.597Z,6.69
2019-01-15T17:08:30.357Z,6.72
2019-01-15T17:09:30.284Z,6.69
2019-01-15T17:11:23.049Z,6.72
2019-01-15T17:12:22.970Z,6.71
2019-01-15T17:14:15.796Z,6.73
2019-01-15T17:15:15.688Z,6.63
2019-01-15T17:17:08.446Z,6.64
2019-01-15T17:18:08.375Z,6.65
2019-01-15T17:20:01.164Z,6.63
2019-01-15T17:21:01.079Z,6.69
2019-01-15T17:22:53.842Z,6.61
2019-01-15T17:23:53.776Z,6.73
2019-01-15T17:25:46.536Z,6.72
2019-01-15T17:26:46.457Z,6.71
2019-01-15T17:28:39.208Z,6.76
2019-01-15T17:29:39.139Z,6.72
2019-01-15T17:31:31.918Z,6.79
2019-01-15T17:32:31.833Z,6.82
2019-01-15T17:34:24.599Z,6.76
2019-01-15T17:35:24.527Z,6.78
2019-01-15T17:37:17.334Z,6.82
2019-01-15T17:38:17.248Z,6.79
2019-01-15T17:40:10.053Z,6.83
2019-01-15T17:41:09.959Z,6.91
2019-01-15T17:43:02.770Z,6.97
2019-01-15T17:44:02.700Z,6.97
2019-01-15T17:45:55.523Z,7.01
2019-01-15T17:46:55.428Z,6.97
2019-01-15T17:48:48.201Z,6.97
2019-01-15T17:49:48.116Z,7.01
2019-01-15T17:51:40.929Z,7.01
2019-01-15T17:52:43.769Z,6.97
2019-01-15T17:54:33.618Z,7.16
2019-01-15T17:55:33.548Z,7.14
2019-01-15T17:57:26.322Z,7.14
2019-01-15T17:58:26.229Z,7.09
2019-01-15T18:00:19.029Z,7.11
2019-01-15T18:01:18.984Z,7.07
2019-01-15T18:03:11.862Z,7.14
2019-01-15T18:04:11.697Z,7.08
2019-01-15T18:06:04.598Z,7.12
2019-01-15T18:07:04.550Z,7.12
2019-01-15T18:08:57.244Z,7.14
2019-01-15T18:09:57.157Z,7.16
2019-01-15T18:11:50.001Z,7.14
2019-01-15T18:12:49.840Z,7.01
2019-01-15T18:14:42.748Z,7.04
2019-01-15T18:15:42.714Z,7.00
2019-01-15T18:17:35.440Z,7.01
2019-01-15T18:18:35.303Z,7.01
2019-01-15T18:20:28.105Z,7.07
2019-01-15T18:21:28.020Z,6.97
2019-01-15T18:23:20.856Z,7.01
2019-01-15T18:24:20.720Z,7.01
2019-01-15T18:26:13.651Z,7.07
2019-01-15T18:27:13.495Z,7.11
2019-01-15T18:29:06.312Z,7.11
2019-01-15T18:30:06.259Z,7.11
2019-01-15T18:31:58.894Z,7.04
2019-01-15T18:32:58.812Z,7.07
2019-01-15T18:34:51.597Z,7.14
2019-01-15T18:35:51.515Z,7.05
2019-01-15T18:37:44.327Z,7.08
2019-01-15T18:38:45.506Z,7.09
2019-01-15T18:40:36.982Z,7.16
2019-01-15T18:41:36.890Z,7.12
2019-01-15T18:43:29.747Z,7.14
2019-01-15T18:44:29.592Z,7.12
2019-01-15T18:46:22.372Z,7.18
2019-01-15T18:47:22.283Z,7.15
2019-01-15T18:49:15.052Z,7.16
2019-01-15T18:50:14.966Z,7.21
2019-01-15T18:52:07.843Z,7.15
2019-01-15T18:53:07.724Z,7.21
2019-01-15T18:55:00.586Z,7.19
2019-01-15T18:56:00.411Z,7.19
2019-01-15T18:57:53.251Z,7.34
2019-01-15T18:58:53.117Z,7.18
2019-01-15T19:00:45.875Z,7.23
2019-01-15T19:01:45.797Z,7.32
2019-01-15T19:03:38.628Z,7.36
2019-01-15T19:04:38.537Z,7.33
2019-01-15T19:06:31.359Z,7.42
2019-01-15T19:07:31.233Z,7.37
2019-01-15T19:09:24.122Z,7.47
2019-01-15T19:10:23.928Z,7.42
2019-01-15T19:12:16.692Z,7.47